createdAt,value
2023-04-18T00:00:49.392Z,418.00
2023-04-18T00:01:49.433Z,400.00
2023-04-18T00:02:49.597Z,400.00
2023-04-18T00:03:49.692Z,400.00
2023-04-18T00:04:49.578Z,400.00
2023-04-18T00:05:49.486Z,400.00
2023-04-18T00:06:49.542Z,409.00
2023-04-18T00:07:49.543Z,431.00
2023-04-18T00:08:49.563Z,458.00
2023-04-18T00:09:49.602Z,493.00
2023-04-18T00:10:49.607Z,502.00
2023-04-18T00:11:49.636Z,500.00
2023-04-18T00:12:49.633Z,502.00
2023-04-18T00:13:49.649Z,500.00
2023-04-18T00:14:49.681Z,501.00
2023-04-18T00:15:49.669Z,500.00
2023-04-18T00:16:49.734Z,501.00
2023-04-18T00:17:49.754Z,502.00
2023-04-18T00:18:49.703Z,500.00
2023-04-18T00:19:49.777Z,500.00
2023-04-18T00:20:49.709Z,502.00
2023-04-18T00:21:49.722Z,500.00
2023-04-18T00:22:49.716Z,500.00
2023-04-18T00:23:49.719Z,502.00
2023-04-18T00:24:49.775Z,502.00
2023-04-18T00:25:49.768Z,500.00
2023-04-18T00:26:49.816Z,500.00
2023-04-18T00:27:49.798Z,504.00
2023-04-18T00:28:49.820Z,501.00
2023-04-18T00:29:49.867Z,504.00
2023-04-18T00:30:49.918Z,502.00
2023-04-18T00:31:49.887Z,500.00
2023-04-18T00:32:49.934Z,504.00
2023-04-18T00:33:49.933Z,502.00
2023-04-18T00:34:49.980Z,501.00
2023-04-18T00:35:50.006Z,502.00
2023-04-18T00:36:50.004Z,505.00
2023-04-18T00:37:50.020Z,501.00
2023-04-18T00:38:50.048Z,503.00
2023-04-18T00:39:50.098Z,504.00
2023-04-18T00:40:50.088Z,500.00
2023-04-18T00:41:50.161Z,506.00
2023-04-18T00:42:50.151Z,500.00
2023-04-18T00:43:50.153Z,500.00
2023-04-18T00:44:50.177Z,500.00
2023-04-18T00:45:50.218Z,502.00
2023-04-18T00:46:50.255Z,505.00
2023-04-18T00:47:50.255Z,503.00
2023-04-18T00:48:50.267Z,505.00
2023-04-18T00:49:50.287Z,503.00
2023-04-18T00:50:50.298Z,506.00
2023-04-18T00:51:50.351Z,502.00
2023-04-18T00:52:50.326Z,500.00
2023-04-18T00:53:50.336Z,504.00
2023-04-18T00:54:50.334Z,506.00
2023-04-18T00:55:50.361Z,507.00
2023-04-18T00:56:50.365Z,502.00
2023-04-18T00:57:50.389Z,500.00
2023-04-18T00:58:50.440Z,505.00
2023-04-18T00:59:50.488Z,502.00
2023-04-18T01:00:50.465Z,505.00
2023-04-18T01:01:50.533Z,506.00
2023-04-18T01:02:50.619Z,508.00
2023-04-18T01:03:50.709Z,503.00
2023-04-18T01:04:50.561Z,506.00
2023-04-18T01:05:50.573Z,503.00
2023-04-18T01:06:50.593Z,505.00
2023-04-18T01:07:50.615Z,508.00
2023-04-18T01:08:50.648Z,510.00
2023-04-18T01:09:50.675Z,503.00
2023-04-18T01:10:50.685Z,507.00
2023-04-18T01:11:50.703Z,505.00
2023-04-18T01:12:50.744Z,503.00
2023-04-18T01:13:50.744Z,506.00
2023-04-18T01:14:50.792Z,506.00
2023-04-18T01:15:50.926Z,503.00
2023-04-18T01:16:50.808Z,504.00
2023-04-18T01:17:50.867Z,504.00
2023-04-18T01:18:50.859Z,503.00
2023-04-18T01:19:50.885Z,504.00
2023-04-18T01:20:50.923Z,503.00
2023-04-18T01:21:50.946Z,504.00
2023-04-18T01:22:50.967Z,502.00
2023-04-18T01:23:50.985Z,500.00
2023-04-18T01:24:51.017Z,506.00
2023-04-18T01:25:51.037Z,500.00
2023-04-18T01:26:51.051Z,504.00
2023-04-18T01:27:51.088Z,510.00
2023-04-18T01:28:51.103Z,506.00
2023-04-18T01:29:51.118Z,509.00
2023-04-18T01:30:51.163Z,508.00
2023-04-18T01:31:51.144Z,503.00
2023-04-18T01:32:51.235Z,505.00
2023-04-18T01:33:51.209Z,504.00
2023-04-18T01:34:51.232Z,502.00
2023-04-18T01:35:51.256Z,500.00
2023-04-18T01:36:51.285Z,504.00
2023-04-18T01:37:51.319Z,502.00
2023-04-18T01:38:51.323Z,501.00
2023-04-18T01:39:51.363Z,502.00
2023-04-18T01:40:51.394Z,509.00
2023-04-18T01:41:51.389Z,511.00
2023-04-18T01:42:51.423Z,503.00
2023-04-18T01:43:51.439Z,504.00
2023-04-18T01:44:51.461Z,505.00
2023-04-18T01:45:51.488Z,503.00
2023-04-18T01:46:51.564Z,501.00
2023-04-18T01:47:51.541Z,501.00
2023-04-18T01:48:51.537Z,502.00
2023-04-18T01:49:51.572Z,500.00
2023-04-18T01:50:51.587Z,505.00
2023-04-18T01:51:51.621Z,501.00
2023-04-18T01:52:51.634Z,508.00
2023-04-18T01:53:51.640Z,508.00
2023-04-18T01:54:51.659Z,503.00
2023-04-18T01:55:51.696Z,501.00
2023-04-18T01:56:51.707Z,507.00
2023-04-18T01:57:51.748Z,501.00
2023-04-18T01:58:51.829Z,505.00
2023-04-18T01:59:51.778Z,505.00
2023-04-18T02:00:51.831Z,501.00
2023-04-18T02:01:51.855Z,503.00
2023-04-18T02:02:51.967Z,503.00
2023-04-18T02:03:51.964Z,509.00
2023-04-18T02:04:51.897Z,508.00
2023-04-18T02:05:51.920Z,504.00
2023-04-18T02:06:51.946Z,505.00
2023-04-18T02:07:51.977Z,504.00
2023-04-18T02:08:52.000Z,503.00
2023-04-18T02:09:52.011Z,505.00
2023-04-18T02:10:52.015Z,503.00
2023-04-18T02:11:52.021Z,503.00
2023-04-18T02:12:52.028Z,506.00
2023-04-18T02:13:52.016Z,500.00
2023-04-18T02:14:52.035Z,508.00
2023-04-18T02:15:52.049Z,501.00
2023-04-18T02:16:52.141Z,501.00
2023-04-18T02:17:52.201Z,503.00
2023-04-18T02:18:52.124Z,502.00
2023-04-18T02:19:52.135Z,504.00
2023-04-18T02:20:52.135Z,508.00
2023-04-18T02:21:52.159Z,506.00
2023-04-18T02:22:52.186Z,507.00
2023-04-18T02:23:52.198Z,508.00
2023-04-18T02:24:52.227Z,507.00
2023-04-18T02:25:52.242Z,507.00
2023-04-18T02:26:52.277Z,504.00
2023-04-18T02:27:52.272Z,502.00
2023-04-18T02:28:52.281Z,504.00
2023-04-18T02:29:52.274Z,506.00
2023-04-18T02:30:52.312Z,503.00
2023-04-18T02:31:52.384Z,503.00
2023-04-18T02:32:52.454Z,505.00
2023-04-18T02:33:52.366Z,507.00
2023-04-18T02:34:52.416Z,502.00
2023-04-18T02:35:52.419Z,507.00
2023-04-18T02:36:52.436Z,505.00
2023-04-18T02:37:52.462Z,505.00
2023-04-18T02:38:52.485Z,502.00
2023-04-18T02:39:52.506Z,502.00
2023-04-18T02:40:52.539Z,505.00
2023-04-18T02:41:52.520Z,500.00
2023-04-18T02:42:52.520Z,507.00
2023-04-18T02:43:52.528Z,505.00
2023-04-18T02:44:52.534Z,504.00
2023-04-18T02:45:52.606Z,505.00
2023-04-18T02:46:52.558Z,505.00
2023-04-18T02:47:55.884Z,508.00
2023-04-18T02:48:52.582Z,508.00
2023-04-18T02:49:52.587Z,509.00
2023-04-18T02:50:52.598Z,508.00
2023-04-18T02:51:52.566Z,504.00
2023-04-18T02:52:52.568Z,508.00
2023-04-18T02:53:52.553Z,509.00
2023-04-18T02:54:52.548Z,508.00
2023-04-18T02:55:52.538Z,507.00
2023-04-18T02:56:52.538Z,510.00
2023-04-18T02:57:52.526Z,505.00
2023-04-18T02:58:52.533Z,507.00
2023-04-18T02:59:52.507Z,504.00
2023-04-18T03:00:52.595Z,506.00
2023-04-18T03:01:52.557Z,504.00
2023-04-18T03:02:52.611Z,506.00
2023-04-18T03:03:52.484Z,500.00
2023-04-18T03:04:52.527Z,505.00
2023-04-18T03:05:52.467Z,509.00
2023-04-18T03:06:52.514Z,508.00
2023-04-18T03:07:52.517Z,504.00
2023-04-18T03:08:52.521Z,501.00
2023-04-18T03:09:52.514Z,503.00
2023-04-18T03:10:53.219Z,508.00
2023-04-18T03:11:52.690Z,507.00
2023-04-18T03:12:52.704Z,506.00
2023-04-18T03:13:52.727Z,506.00
2023-04-18T03:14:52.740Z,504.00
2023-04-18T03:15:52.775Z,503.00
2023-04-18T03:16:55.193Z,502.00
2023-04-18T03:17:52.815Z,515.00
2023-04-18T03:18:52.755Z,516.00
2023-04-18T03:19:52.790Z,509.00
2023-04-18T03:20:52.740Z,506.00
2023-04-18T03:21:52.757Z,508.00
2023-04-18T03:22:52.746Z,507.00
2023-04-18T03:23:52.718Z,508.00
2023-04-18T03:24:52.701Z,505.00
2023-04-18T03:25:52.702Z,504.00
2023-04-18T03:26:52.703Z,501.00
2023-04-18T03:27:52.691Z,506.00
2023-04-18T03:28:52.679Z,500.00
2023-04-18T03:29:52.676Z,502.00
2023-04-18T03:30:52.689Z,509.00
2023-04-18T03:31:52.669Z,503.00
2023-04-18T03:32:52.773Z,503.00
2023-04-18T03:33:52.662Z,506.00
2023-04-18T03:34:52.685Z,505.00
2023-04-18T03:35:52.659Z,505.00
2023-04-18T03:36:52.629Z,506.00
2023-04-18T03:37:52.618Z,507.00
2023-04-18T03:38:52.631Z,508.00
2023-04-18T03:39:52.604Z,510.00
2023-04-18T03:40:52.595Z,506.00
2023-04-18T03:41:52.601Z,514.00
2023-04-18T03:42:52.579Z,507.00
2023-04-18T03:43:52.581Z,506.00
2023-04-18T03:44:52.564Z,504.00
2023-04-18T03:45:52.614Z,506.00
2023-04-18T03:46:52.565Z,507.00
2023-04-18T03:47:52.561Z,505.00
2023-04-18T03:48:52.538Z,504.00
2023-04-18T03:49:52.527Z,507.00
2023-04-18T03:50:52.520Z,505.00
2023-04-18T03:51:52.512Z,505.00
2023-04-18T03:52:52.500Z,506.00
2023-04-18T03:53:52.498Z,508.00
2023-04-18T03:54:52.510Z,505.00
2023-04-18T03:55:52.492Z,507.00
2023-04-18T03:56:52.483Z,505.00
2023-04-18T03:57:52.471Z,509.00
2023-04-18T03:58:52.466Z,503.00
2023-04-18T03:59:52.465Z,507.00
2023-04-18T04:00:52.448Z,506.00
2023-04-18T04:01:52.616Z,503.00
2023-04-18T04:02:52.644Z,508.00
2023-04-18T04:03:52.611Z,505.00
2023-04-18T04:04:51.459Z,505.00
2023-04-18T04:05:52.430Z,507.00
2023-04-18T04:06:52.415Z,506.00
2023-04-18T04:07:52.406Z,503.00
2023-04-18T04:08:52.423Z,508.00
2023-04-18T04:09:52.455Z,507.00
2023-04-18T04:10:52.510Z,510.00
2023-04-18T04:11:52.553Z,510.00
2023-04-18T04:12:52.531Z,503.00
2023-04-18T04:13:52.539Z,507.00
2023-04-18T04:14:52.553Z,504.00
2023-04-18T04:15:52.560Z,507.00
2023-04-18T04:16:52.817Z,506.00
2023-04-18T04:17:52.589Z,507.00
2023-04-18T04:18:52.577Z,503.00
2023-04-18T04:19:52.611Z,505.00
2023-04-18T04:20:52.630Z,506.00
2023-04-18T04:21:52.663Z,505.00
2023-04-18T04:22:52.642Z,508.00
2023-04-18T04:23:52.644Z,506.00
2023-04-18T04:24:52.649Z,501.00
2023-04-18T04:25:52.660Z,504.00
2023-04-18T04:26:52.816Z,504.00
2023-04-18T04:27:52.710Z,510.00
2023-04-18T04:28:52.746Z,510.00
2023-04-18T04:29:52.765Z,505.00
2023-04-18T04:30:52.796Z,503.00
2023-04-18T04:31:52.897Z,505.00
2023-04-18T04:32:52.895Z,503.00
2023-04-18T04:33:52.866Z,505.00
2023-04-18T04:34:52.899Z,503.00
2023-04-18T04:35:52.923Z,505.00
2023-04-18T04:36:52.949Z,504.00
2023-04-18T04:37:52.957Z,506.00
2023-04-18T04:38:52.960Z,508.00
2023-04-18T04:39:52.991Z,503.00
2023-04-18T04:40:53.004Z,505.00
2023-04-18T04:41:53.040Z,504.00
2023-04-18T04:42:53.082Z,504.00
2023-04-18T04:43:53.088Z,507.00
2023-04-18T04:44:53.152Z,503.00
2023-04-18T04:45:53.247Z,502.00
2023-04-18T04:46:53.158Z,505.00
2023-04-18T04:47:53.318Z,506.00
2023-04-18T04:48:53.198Z,504.00
2023-04-18T04:49:53.223Z,508.00
2023-04-18T04:50:53.243Z,502.00
2023-04-18T04:51:53.246Z,509.00
2023-04-18T04:52:53.260Z,503.00
2023-04-18T04:53:53.281Z,508.00
2023-04-18T04:54:53.291Z,506.00
2023-04-18T04:55:53.316Z,508.00
2023-04-18T04:56:53.322Z,507.00
2023-04-18T04:57:53.329Z,507.00
2023-04-18T04:58:53.388Z,503.00
2023-04-18T04:59:53.375Z,510.00
2023-04-18T05:00:53.421Z,506.00
2023-04-18T05:01:53.566Z,509.00
2023-04-18T05:02:53.728Z,507.00
2023-04-18T05:03:53.547Z,500.00
2023-04-18T05:04:53.469Z,509.00
2023-04-18T05:05:53.486Z,507.00
2023-04-18T05:06:53.506Z,506.00
2023-04-18T05:07:53.536Z,506.00
2023-04-18T05:08:53.558Z,505.00
2023-04-18T05:09:53.552Z,506.00
2023-04-18T05:10:53.544Z,505.00
2023-04-18T05:11:53.565Z,506.00
2023-04-18T05:12:53.601Z,506.00
2023-04-18T05:13:53.614Z,506.00
2023-04-18T05:14:53.667Z,510.00
2023-04-18T05:15:53.653Z,506.00
2023-04-18T05:16:53.706Z,511.00
2023-04-18T05:17:54.052Z,503.00
2023-04-18T05:18:53.684Z,507.00
2023-04-18T05:19:54.521Z,503.00
2023-04-18T05:20:53.720Z,505.00
2023-04-18T05:21:53.743Z,510.00
2023-04-18T05:22:53.761Z,508.00
2023-04-18T05:23:53.799Z,504.00
2023-04-18T05:24:54.016Z,504.00
2023-04-18T05:25:53.809Z,505.00
2023-04-18T05:26:53.835Z,502.00
2023-04-18T05:27:53.835Z,502.00
2023-04-18T05:28:53.842Z,508.00
2023-04-18T05:29:53.856Z,507.00
2023-04-18T05:30:54.097Z,514.00
2023-04-18T05:31:53.866Z,510.00
2023-04-18T05:32:53.941Z,508.00
2023-04-18T05:33:53.873Z,510.00
2023-04-18T05:34:53.887Z,512.00
2023-04-18T05:35:53.913Z,516.00
2023-04-18T05:36:53.948Z,516.00
2023-04-18T05:37:54.022Z,517.00
2023-04-18T05:38:53.981Z,513.00
2023-04-18T05:39:54.033Z,521.00
2023-04-18T05:40:54.013Z,524.00
2023-04-18T05:41:54.035Z,530.00
2023-04-18T05:42:54.051Z,526.00
2023-04-18T05:44:04.916Z,531.00
2023-04-18T05:44:55.048Z,532.00
2023-04-18T05:45:55.917Z,532.00
2023-04-18T05:46:55.077Z,532.00
2023-04-18T05:47:54.598Z,534.00
2023-04-18T05:48:54.540Z,537.00
2023-04-18T05:49:54.029Z,540.00
2023-04-18T05:50:54.034Z,545.00
2023-04-18T05:51:54.015Z,541.00
2023-04-18T05:52:54.003Z,552.00
2023-04-18T05:53:54.046Z,548.00
2023-04-18T05:54:53.992Z,560.00
2023-04-18T05:55:54.071Z,570.00
2023-04-18T05:56:55.007Z,574.00
2023-04-18T05:57:53.970Z,582.00
2023-04-18T05:58:54.053Z,597.00
2023-04-18T05:59:54.063Z,613.00
2023-04-18T06:00:53.947Z,617.00
2023-04-18T06:01:53.976Z,620.00
2023-04-18T06:02:54.260Z,623.00
2023-04-18T06:03:54.307Z,594.00
2023-04-18T06:04:54.172Z,581.00
2023-04-18T06:05:54.005Z,597.00
2023-04-18T06:06:53.917Z,601.00
2023-04-18T06:07:54.038Z,608.00
2023-04-18T06:08:53.915Z,603.00
2023-04-18T06:09:54.058Z,609.00
2023-04-18T06:10:53.884Z,597.00
2023-04-18T06:11:53.884Z,590.00
2023-04-18T06:12:53.875Z,591.00
2023-04-18T06:13:54.062Z,588.00
2023-04-18T06:14:54.548Z,586.00
2023-04-18T06:15:54.485Z,589.00
2023-04-18T06:16:54.443Z,594.00
2023-04-18T06:17:54.779Z,591.00
2023-04-18T06:18:54.632Z,591.00
2023-04-18T06:19:55.063Z,591.00
2023-04-18T06:20:54.549Z,595.00
2023-04-18T06:21:54.709Z,591.00
2023-04-18T06:22:54.844Z,591.00
2023-04-18T06:23:55.157Z,587.00
2023-04-18T06:24:54.830Z,591.00
2023-04-18T06:25:54.854Z,595.00
2023-04-18T06:26:54.571Z,591.00
2023-04-18T06:27:54.458Z,590.00
2023-04-18T06:28:54.724Z,586.00
2023-04-18T06:29:55.000Z,590.00
2023-04-18T06:30:54.656Z,594.00
2023-04-18T06:31:54.548Z,587.00
2023-04-18T06:32:54.636Z,588.00
2023-04-18T06:33:54.773Z,586.00
2023-04-18T06:34:54.579Z,592.00
2023-04-18T06:35:54.389Z,593.00
2023-04-18T06:36:54.404Z,589.00
2023-04-18T06:37:54.429Z,589.00
2023-04-18T06:38:54.557Z,591.00
2023-04-18T06:39:54.459Z,588.00
2023-04-18T06:40:54.470Z,591.00
2023-04-18T06:41:54.494Z,592.00
2023-04-18T06:42:54.514Z,596.00
2023-04-18T06:44:03.452Z,594.00
2023-04-18T06:44:54.533Z,595.00
2023-04-18T06:45:54.537Z,596.00
2023-04-18T06:46:54.558Z,597.00
2023-04-18T06:47:54.557Z,599.00
2023-04-18T06:48:54.503Z,600.00
2023-04-18T06:49:54.619Z,598.00
2023-04-18T06:50:54.518Z,600.00
2023-04-18T06:51:54.564Z,597.00
2023-04-18T06:52:54.552Z,593.00
2023-04-18T06:53:54.455Z,595.00
2023-04-18T06:54:54.566Z,591.00
2023-04-18T06:55:54.436Z,597.00
2023-04-18T06:56:54.438Z,596.00
2023-04-18T06:57:54.438Z,591.00
2023-04-18T06:58:54.581Z,591.00
2023-04-18T06:59:54.420Z,589.00
2023-04-18T07:00:54.584Z,591.00
2023-04-18T07:01:54.448Z,592.00
2023-04-18T07:02:54.671Z,589.00
2023-04-18T07:03:54.677Z,589.00
2023-04-18T07:04:54.386Z,592.00
2023-04-18T07:05:54.374Z,591.00
2023-04-18T07:06:54.784Z,588.00
2023-04-18T07:07:54.360Z,590.00
2023-04-18T07:08:54.616Z,589.00
2023-04-18T07:09:54.342Z,588.00
2023-04-18T07:10:54.331Z,589.00
2023-04-18T07:11:54.332Z,587.00
2023-04-18T07:12:54.322Z,586.00
2023-04-18T07:13:54.563Z,588.00
2023-04-18T07:14:54.316Z,587.00
2023-04-18T07:15:54.308Z,585.00
2023-04-18T07:16:54.322Z,587.00
2023-04-18T07:17:54.296Z,583.00
2023-04-18T07:18:54.274Z,587.00
2023-04-18T07:19:54.270Z,584.00
2023-04-18T07:20:54.265Z,583.00
2023-04-18T07:21:54.276Z,589.00
2023-04-18T07:22:54.437Z,583.00
2023-04-18T07:23:54.571Z,583.00
2023-04-18T07:24:54.234Z,583.00
2023-04-18T07:25:54.226Z,584.00
2023-04-18T07:26:55.044Z,579.00
2023-04-18T07:27:54.566Z,582.00
2023-04-18T07:28:54.567Z,585.00
2023-04-18T07:29:54.215Z,583.00
2023-04-18T07:30:54.208Z,579.00
2023-04-18T07:31:54.186Z,580.00
2023-04-18T07:32:54.213Z,583.00
2023-04-18T07:33:54.579Z,585.00
2023-04-18T07:34:54.178Z,582.00
2023-04-18T07:35:54.166Z,582.00
2023-04-18T07:36:54.200Z,585.00
2023-04-18T07:37:54.160Z,581.00
2023-04-18T07:38:54.658Z,583.00
2023-04-18T07:39:54.174Z,602.00
2023-04-18T07:40:54.188Z,615.00
2023-04-18T07:41:54.139Z,623.00
2023-04-18T07:42:54.143Z,630.00
2023-04-18T07:43:54.599Z,640.00
2023-04-18T07:44:55.133Z,644.00
2023-04-18T07:45:54.156Z,652.00
2023-04-18T07:46:54.105Z,672.00
2023-04-18T07:47:54.161Z,696.00
2023-04-18T07:48:54.578Z,710.00
2023-04-18T07:49:54.113Z,713.00
2023-04-18T07:50:54.135Z,745.00
2023-04-18T07:51:55.081Z,768.00
2023-04-18T07:52:54.068Z,793.00
2023-04-18T07:53:54.053Z,809.00
2023-04-18T07:54:54.164Z,831.00
2023-04-18T07:55:54.088Z,862.00
2023-04-18T07:56:54.036Z,861.00
2023-04-18T07:57:54.073Z,866.00
2023-04-18T07:58:54.099Z,888.00
2023-04-18T07:59:54.162Z,910.00
2023-04-18T08:00:54.585Z,931.00
2023-04-18T08:01:54.272Z,943.00
2023-04-18T08:02:57.600Z,959.00
2023-04-18T08:03:54.410Z,961.00
2023-04-18T08:04:54.503Z,967.00
2023-04-18T08:05:54.585Z,986.00
2023-04-18T08:06:57.471Z,1025.00
2023-04-18T08:07:54.245Z,965.00
2023-04-18T08:08:54.588Z,981.00
2023-04-18T08:09:54.227Z,1017.00
2023-04-18T08:10:54.259Z,1060.00
2023-04-18T08:11:54.221Z,1144.00
2023-04-18T08:12:54.210Z,1159.00
2023-04-18T08:13:54.211Z,1178.00
2023-04-18T08:14:54.197Z,1182.00
2023-04-18T08:15:54.634Z,1208.00
2023-04-18T08:16:54.205Z,1211.00
2023-04-18T08:17:54.223Z,1233.00
2023-04-18T08:18:54.165Z,1254.00
2023-04-18T08:19:54.592Z,1261.00
2023-04-18T08:20:54.151Z,1280.00
2023-04-18T08:21:54.174Z,1298.00
2023-04-18T08:23:53.145Z,1323.00
2023-04-18T08:25:04.353Z,1329.00
2023-04-18T08:25:54.124Z,1325.00
2023-04-18T08:26:54.226Z,1339.00
2023-04-18T08:27:54.137Z,1352.00
2023-04-18T08:28:54.108Z,1397.00
2023-04-18T08:29:54.608Z,1435.00
2023-04-18T08:30:54.090Z,1463.00
2023-04-18T08:31:54.120Z,1473.00
2023-04-18T08:32:54.190Z,1478.00
2023-04-18T08:33:55.065Z,1511.00
2023-04-18T08:34:54.099Z,1535.00
2023-04-18T08:35:54.055Z,1539.00
2023-04-18T08:36:54.047Z,1550.00
2023-04-18T08:37:54.054Z,1552.00
2023-04-18T08:38:54.043Z,1577.00
2023-04-18T08:39:54.110Z,1604.00
2023-04-18T08:40:54.016Z,1615.00
2023-04-18T08:41:54.014Z,1621.00
2023-04-18T08:42:54.262Z,1640.00
2023-04-18T08:43:56.558Z,1655.00
2023-04-18T08:44:54.117Z,1657.00
2023-04-18T08:45:54.064Z,1663.00
2023-04-18T08:46:53.990Z,1678.00
2023-04-18T08:47:54.072Z,1702.00
2023-04-18T08:48:53.958Z,1749.00
2023-04-18T08:49:54.101Z,1770.00
2023-04-18T08:50:53.953Z,1773.00
2023-04-18T08:51:53.949Z,1804.00
2023-04-18T08:52:53.932Z,1816.00
2023-04-18T08:53:54.134Z,1823.00
2023-04-18T08:54:53.957Z,1835.00
2023-04-18T08:55:53.914Z,1848.00
2023-04-18T08:56:53.977Z,1853.00
2023-04-18T08:57:53.899Z,1886.00
2023-04-18T08:58:54.190Z,1883.00
2023-04-18T08:59:56.633Z,1885.00
2023-04-18T09:00:53.905Z,1887.00
2023-04-18T09:01:53.890Z,1892.00
2023-04-18T09:02:54.234Z,1898.00
2023-04-18T09:03:53.922Z,1926.00
2023-04-18T09:04:53.847Z,1953.00
2023-04-18T09:05:53.844Z,1972.00
2023-04-18T09:06:53.844Z,1985.00
2023-04-18T09:07:54.111Z,1989.00
2023-04-18T09:08:53.824Z,2028.00
2023-04-18T09:09:53.830Z,2027.00
2023-04-18T09:10:53.808Z,2058.00
2023-04-18T09:11:53.806Z,2063.00
2023-04-18T09:12:54.124Z,2081.00
2023-04-18T09:13:53.797Z,2088.00
2023-04-18T09:14:53.893Z,2095.00
2023-04-18T09:15:53.782Z,2108.00
2023-04-18T09:16:53.838Z,2126.00
2023-04-18T09:17:54.662Z,2127.00
2023-04-18T09:18:53.768Z,2121.00
2023-04-18T09:19:53.763Z,2107.00
2023-04-18T09:20:53.753Z,1933.00
2023-04-18T09:21:54.114Z,1392.00
2023-04-18T09:22:53.741Z,1151.00
2023-04-18T09:23:53.732Z,1189.00
2023-04-18T09:24:53.760Z,1252.00
2023-04-18T09:25:54.116Z,1245.00
2023-04-18T09:26:54.173Z,1362.00
2023-04-18T09:27:54.149Z,1471.00
2023-04-18T09:28:54.007Z,1467.00
2023-04-18T09:29:54.694Z,1452.00
2023-04-18T09:30:53.724Z,1478.00
2023-04-18T09:31:54.120Z,1416.00
2023-04-18T09:32:54.174Z,1405.00
2023-04-18T09:33:53.674Z,1394.00
2023-04-18T09:34:53.668Z,1388.00
2023-04-18T09:35:53.663Z,1393.00
2023-04-18T09:36:54.202Z,1676.00
2023-04-18T09:37:53.642Z,1602.00
2023-04-18T09:38:56.353Z,1543.00
2023-04-18T09:39:53.635Z,1520.00
2023-04-18T09:40:54.124Z,1491.00
2023-04-18T09:41:53.623Z,1446.00
2023-04-18T09:42:53.621Z,1401.00
2023-04-18T09:43:53.612Z,1394.00
2023-04-18T09:44:55.753Z,1393.00
2023-04-18T09:45:53.652Z,1393.00
2023-04-18T09:46:53.620Z,1161.00
2023-04-18T09:47:53.728Z,1197.00
2023-04-18T09:48:53.577Z,1089.00
2023-04-18T09:49:53.569Z,904.00
2023-04-18T09:50:53.602Z,626.00
2023-04-18T09:51:53.640Z,592.00
2023-04-18T09:52:53.551Z,556.00
2023-04-18T09:53:53.573Z,542.00
2023-04-18T09:54:53.541Z,545.00
2023-04-18T09:55:54.951Z,565.00
2023-04-18T09:56:53.519Z,531.00
2023-04-18T09:57:53.524Z,487.00
2023-04-18T09:58:53.581Z,455.00
2023-04-18T09:59:53.495Z,422.00
2023-04-18T10:00:53.655Z,476.00
2023-04-18T10:01:53.543Z,498.00
2023-04-18T10:02:53.665Z,514.00
2023-04-18T10:03:53.529Z,525.00
2023-04-18T10:04:53.599Z,518.00
2023-04-18T10:05:54.431Z,527.00
2023-04-18T10:06:53.465Z,520.00
2023-04-18T10:07:53.583Z,514.00
2023-04-18T10:08:53.452Z,534.00
2023-04-18T10:09:53.427Z,558.00
2023-04-18T10:10:53.740Z,559.00
2023-04-18T10:11:53.433Z,548.00
2023-04-18T10:12:53.410Z,500.00
2023-04-18T10:13:53.401Z,520.00
2023-04-18T10:14:53.636Z,520.00
2023-04-18T10:15:53.431Z,486.00
2023-04-18T10:16:53.372Z,504.00
2023-04-18T10:18:03.420Z,500.00
2023-04-18T10:18:53.406Z,501.00
2023-04-18T10:19:53.387Z,506.00
2023-04-18T10:20:53.388Z,508.00
2023-04-18T10:21:53.401Z,518.00
2023-04-18T10:22:53.688Z,510.00
2023-04-18T10:23:53.351Z,501.00
2023-04-18T10:24:53.960Z,497.00
2023-04-18T10:25:53.347Z,480.00
2023-04-18T10:26:53.635Z,481.00
2023-04-18T10:27:53.311Z,502.00
2023-04-18T10:28:54.030Z,500.00
2023-04-18T10:29:53.300Z,503.00
2023-04-18T10:30:53.286Z,519.00
2023-04-18T10:31:53.807Z,579.00
2023-04-18T10:32:53.335Z,624.00
2023-04-18T10:34:03.830Z,691.00
2023-04-18T10:34:53.332Z,697.00
2023-04-18T10:35:53.273Z,729.00
2023-04-18T10:36:53.667Z,797.00
2023-04-18T10:37:53.554Z,966.00
2023-04-18T10:38:53.236Z,1186.00
2023-04-18T10:39:53.245Z,1245.00
2023-04-18T10:40:53.469Z,1249.00
2023-04-18T10:41:53.753Z,1285.00
2023-04-18T10:42:53.646Z,1330.00
2023-04-18T10:43:53.203Z,1363.00
2023-04-18T10:44:53.184Z,1424.00
2023-04-18T10:45:53.725Z,1481.00
2023-04-18T10:46:53.286Z,1520.00
2023-04-18T10:47:53.655Z,1529.00
2023-04-18T10:48:53.160Z,1571.00
2023-04-18T10:49:53.811Z,1608.00
2023-04-18T10:50:53.185Z,1656.00
2023-04-18T10:51:53.165Z,1690.00
2023-04-18T10:52:53.650Z,1736.00
2023-04-18T10:53:53.162Z,1764.00
2023-04-18T10:54:53.103Z,1750.00
2023-04-18T10:55:53.103Z,1802.00
2023-04-18T10:56:53.246Z,1822.00
2023-04-18T10:57:53.193Z,1870.00
2023-04-18T10:58:53.734Z,1899.00
2023-04-18T10:59:53.077Z,1932.00
2023-04-18T11:00:53.114Z,1965.00
2023-04-18T11:01:53.215Z,1986.00
2023-04-18T11:02:53.324Z,2024.00
2023-04-18T11:03:53.436Z,2058.00
2023-04-18T11:04:53.062Z,2113.00
2023-04-18T11:05:53.032Z,2131.00
2023-04-18T11:06:53.294Z,2171.00
2023-04-18T11:07:53.092Z,2223.00
2023-04-18T11:08:53.123Z,2265.00
2023-04-18T11:09:54.162Z,2309.00
2023-04-18T11:10:53.167Z,2325.00
2023-04-18T11:11:53.661Z,2361.00
2023-04-18T11:12:53.249Z,2393.00
2023-04-18T11:13:53.243Z,2428.00
2023-04-18T11:14:53.291Z,2474.00
2023-04-18T11:15:53.295Z,2508.00
2023-04-18T11:16:53.735Z,2531.00
2023-04-18T11:17:53.389Z,2518.00
2023-04-18T11:18:53.357Z,2517.00
2023-04-18T11:19:53.676Z,2515.00
2023-04-18T11:20:53.405Z,2491.00
2023-04-18T11:21:53.688Z,2417.00
2023-04-18T11:22:53.511Z,2371.00
2023-04-18T11:23:53.541Z,2338.00
2023-04-18T11:24:53.554Z,2271.00
2023-04-18T11:25:53.638Z,2228.00
2023-04-18T11:26:53.671Z,2202.00
2023-04-18T11:27:53.713Z,2180.00
2023-04-18T11:28:53.748Z,2153.00
2023-04-18T11:29:53.803Z,2126.00
2023-04-18T11:30:53.890Z,2081.00
2023-04-18T11:31:56.846Z,2026.00
2023-04-18T11:32:54.341Z,1998.00
2023-04-18T11:33:53.975Z,1941.00
2023-04-18T11:34:54.109Z,1945.00
2023-04-18T11:35:54.024Z,1964.00
2023-04-18T11:36:54.091Z,1983.00
2023-04-18T11:37:54.198Z,1998.00
2023-04-18T11:38:54.200Z,2037.00
2023-04-18T11:39:54.225Z,2069.00
2023-04-18T11:40:54.273Z,2108.00
2023-04-18T11:41:54.680Z,2125.00
2023-04-18T11:42:54.348Z,2154.00
2023-04-18T11:43:54.677Z,2176.00
2023-04-18T11:44:54.432Z,2206.00
2023-04-18T11:45:54.537Z,2247.00
2023-04-18T11:46:54.683Z,2276.00
2023-04-18T11:47:54.525Z,2270.00
2023-04-18T11:48:54.528Z,2271.00
2023-04-18T11:49:56.437Z,2271.00
2023-04-18T11:50:54.505Z,2293.00
2023-04-18T11:51:54.677Z,2294.00
2023-04-18T11:52:54.516Z,2304.00
2023-04-18T11:53:54.496Z,2300.00
2023-04-18T11:54:54.510Z,2297.00
2023-04-18T11:55:54.481Z,2292.00
2023-04-18T11:56:54.680Z,2286.00
2023-04-18T11:57:54.468Z,2290.00
2023-04-18T11:58:54.459Z,2297.00
2023-04-18T11:59:54.454Z,2290.00
2023-04-18T12:00:54.454Z,2297.00
2023-04-18T12:01:58.456Z,2292.00
2023-04-18T12:02:54.673Z,2294.00
2023-04-18T12:03:54.544Z,2296.00
2023-04-18T12:04:54.975Z,2296.00
2023-04-18T12:05:54.678Z,2297.00
2023-04-18T12:06:54.685Z,2308.00
2023-04-18T12:07:54.566Z,2301.00
2023-04-18T12:08:54.621Z,2285.00
2023-04-18T12:09:54.684Z,2291.00
2023-04-18T12:10:54.788Z,2280.00
2023-04-18T12:11:55.193Z,2289.00
2023-04-18T12:12:54.855Z,2273.00
2023-04-18T12:13:55.048Z,2273.00
2023-04-18T12:14:54.977Z,2281.00
2023-04-18T12:15:55.028Z,2268.00
2023-04-18T12:16:55.187Z,2268.00
2023-04-18T12:17:55.235Z,2242.00
2023-04-18T12:18:55.195Z,2239.00
2023-04-18T12:19:55.212Z,2247.00
2023-04-18T12:20:55.254Z,2235.00
2023-04-18T12:21:55.318Z,2232.00
2023-04-18T12:22:55.691Z,2226.00
2023-04-18T12:23:55.698Z,2220.00